TER weather

Lajes Airport
Praia da Vitória, Autonomous Region of Azores, Portugal

Public forecast

Using degrees Celsius for public forecast. Weather courtesy of forecast.io.

Current aviation weather report (METAR) for Lajes Airport

Retrieved 2020/07/08 10:00 UTC (19 minutes ago):

LPLA 081000Z /////KT 4500 -RADZ SCT008 BKN014 20/17 Q1027

Aviation forecast (TAF) for Lajes Airport

Retrieved 2020/07/08 06:18 UTC (4 hours ago):

TAF TAF LPLA 080510Z 0806/0906 11007KT 9999 SCT015 SCT025